createdAt,value
2018-02-02T00:00:43.824Z,993.21
2018-02-02T00:01:43.824Z,993.25
2018-02-02T00:02:43.807Z,993.23
2018-02-02T00:03:43.783Z,993.27
2018-02-02T00:04:43.771Z,993.22
2018-02-02T00:05:43.805Z,993.22
2018-02-02T00:06:43.769Z,993.23
2018-02-02T00:07:43.731Z,993.22
2018-02-02T00:08:43.724Z,993.21
2018-02-02T00:09:43.710Z,993.21
2018-02-02T00:10:43.691Z,993.18
2018-02-02T00:11:43.679Z,993.15
2018-02-02T00:12:43.665Z,993.12
2018-02-02T00:13:43.653Z,993.11
2018-02-02T00:14:43.643Z,993.12
2018-02-02T00:15:43.632Z,993.09
2018-02-02T00:16:43.615Z,993.06
2018-02-02T00:17:43.612Z,993.09
2018-02-02T00:18:43.586Z,993.08
2018-02-02T00:19:43.579Z,993.04
2018-02-02T00:20:43.565Z,993.00
2018-02-02T00:21:43.551Z,992.99
2018-02-02T00:22:43.541Z,993.00
2018-02-02T00:23:43.536Z,993.02
2018-02-02T00:24:43.517Z,992.94
2018-02-02T00:25:43.512Z,993.02
2018-02-02T00:26:43.489Z,992.99
2018-02-02T00:27:43.481Z,993.08
2018-02-02T00:28:43.484Z,993.08
2018-02-02T00:29:43.448Z,993.06
2018-02-02T00:30:43.441Z,993.13
2018-02-02T00:31:43.425Z,993.11
2018-02-02T00:32:43.413Z,993.08
2018-02-02T00:33:43.412Z,993.07
2018-02-02T00:34:43.392Z,993.04
2018-02-02T00:35:43.376Z,993.05
2018-02-02T00:36:43.407Z,993.07
2018-02-02T00:37:43.347Z,993.07
2018-02-02T00:38:43.343Z,993.09
2018-02-02T00:39:43.341Z,993.12
2018-02-02T00:40:43.345Z,993.09
2018-02-02T00:41:43.313Z,993.14
2018-02-02T00:42:43.287Z,993.13
2018-02-02T00:43:43.275Z,993.11
2018-02-02T00:44:43.268Z,993.06
2018-02-02T00:45:43.251Z,992.99
2018-02-02T00:46:43.237Z,993.02
2018-02-02T00:47:43.222Z,993.04
2018-02-02T00:48:43.222Z,992.98
2018-02-02T00:49:43.207Z,992.93
2018-02-02T00:50:43.189Z,992.97
2018-02-02T00:51:43.197Z,992.98
2018-02-02T00:52:43.160Z,992.93
2018-02-02T00:53:43.147Z,992.92
2018-02-02T00:54:43.141Z,992.88
2018-02-02T00:55:43.128Z,992.88
2018-02-02T00:56:43.114Z,992.92
2018-02-02T00:57:43.099Z,992.90
2018-02-02T00:58:43.086Z,992.92
2018-02-02T00:59:43.085Z,992.91
2018-02-02T01:00:43.058Z,992.92
2018-02-02T01:01:43.059Z,992.97
2018-02-02T01:02:43.036Z,992.95
2018-02-02T01:03:43.023Z,992.99
2018-02-02T01:04:43.010Z,992.94
2018-02-02T01:05:42.999Z,992.96
2018-02-02T01:06:42.986Z,992.94
2018-02-02T01:07:42.980Z,992.93
2018-02-02T01:08:42.964Z,992.88
2018-02-02T01:09:42.961Z,992.91
2018-02-02T01:10:42.939Z,992.90
2018-02-02T01:11:42.958Z,992.92
2018-02-02T01:12:42.921Z,992.87
2018-02-02T01:13:42.900Z,992.86
2018-02-02T01:14:42.901Z,992.88
2018-02-02T01:15:42.895Z,992.89
2018-02-02T01:16:42.888Z,992.90
2018-02-02T01:17:42.851Z,992.88
2018-02-02T01:18:42.839Z,992.88
2018-02-02T01:19:42.826Z,992.82
2018-02-02T01:20:42.811Z,992.76
2018-02-02T01:21:42.823Z,992.76
2018-02-02T01:22:42.788Z,992.78
2018-02-02T01:23:42.788Z,992.77
2018-02-02T01:24:42.763Z,992.76
2018-02-02T01:25:42.747Z,992.71
2018-02-02T01:26:42.738Z,992.73
2018-02-02T01:27:42.739Z,992.70
2018-02-02T01:28:42.715Z,992.76
2018-02-02T01:29:42.704Z,992.75
2018-02-02T01:30:42.700Z,992.79
2018-02-02T01:31:42.701Z,992.76
2018-02-02T01:32:42.667Z,992.73
2018-02-02T01:33:42.651Z,992.76
2018-02-02T01:34:42.644Z,992.79
2018-02-02T01:35:42.627Z,992.71
2018-02-02T01:36:42.622Z,992.72
2018-02-02T01:37:42.631Z,992.73
2018-02-02T01:38:42.590Z,992.74
2018-02-02T01:39:42.581Z,992.75
2018-02-02T01:40:42.562Z,992.76
2018-02-02T01:41:42.555Z,992.74
2018-02-02T01:42:42.549Z,992.75
2018-02-02T01:43:42.544Z,992.71
2018-02-02T01:44:42.516Z,992.71
2018-02-02T01:45:42.503Z,992.69
2018-02-02T01:46:42.490Z,992.74
2018-02-02T01:47:42.477Z,992.75
2018-02-02T01:48:42.463Z,992.69
2018-02-02T01:49:42.480Z,992.74
2018-02-02T01:50:42.441Z,992.79
2018-02-02T01:51:42.433Z,992.70
2018-02-02T01:52:42.416Z,992.78
2018-02-02T01:53:42.419Z,992.78
2018-02-02T01:54:42.397Z,992.74
2018-02-02T01:55:42.385Z,992.75
2018-02-02T01:56:42.372Z,992.69
2018-02-02T01:57:42.371Z,992.67
2018-02-02T01:58:42.380Z,992.63
2018-02-02T01:59:42.337Z,992.66
2018-02-02T02:00:42.318Z,992.64
2018-02-02T02:01:42.307Z,992.63
2018-02-02T02:02:42.290Z,992.64
2018-02-02T02:03:42.292Z,992.60
2018-02-02T02:04:42.293Z,992.53
2018-02-02T02:05:42.256Z,992.57
2018-02-02T02:06:42.251Z,992.59
2018-02-02T02:07:42.232Z,992.55
2018-02-02T02:08:42.217Z,992.52
2018-02-02T02:09:42.209Z,992.53
2018-02-02T02:10:42.209Z,992.54
2018-02-02T02:11:42.182Z,992.49
2018-02-02T02:12:42.196Z,992.55
2018-02-02T02:13:42.165Z,992.48
2018-02-02T02:14:42.147Z,992.50
2018-02-02T02:15:42.139Z,992.45
2018-02-02T02:16:42.120Z,992.45
2018-02-02T02:17:42.128Z,992.38
2018-02-02T02:18:42.138Z,992.40
2018-02-02T02:19:42.083Z,992.42
2018-02-02T02:20:42.071Z,992.23
2018-02-02T02:21:42.057Z,992.31
2018-02-02T02:22:42.048Z,992.34
2018-02-02T02:23:42.054Z,992.26
2018-02-02T02:24:42.032Z,992.27
2018-02-02T02:25:42.044Z,992.24
2018-02-02T02:26:41.996Z,992.25
2018-02-02T02:27:41.987Z,992.24
2018-02-02T02:28:41.983Z,992.19
2018-02-02T02:29:41.960Z,992.24
2018-02-02T02:30:41.948Z,992.22
2018-02-02T02:31:41.948Z,992.21
2018-02-02T02:32:41.954Z,992.27
2018-02-02T02:33:41.948Z,992.26
2018-02-02T02:34:41.898Z,992.24
2018-02-02T02:35:41.886Z,992.29
2018-02-02T02:36:41.875Z,992.28
2018-02-02T02:37:41.858Z,992.22
2018-02-02T02:38:41.866Z,992.25
2018-02-02T02:39:41.836Z,992.12
2018-02-02T02:40:41.822Z,992.21
2018-02-02T02:41:41.816Z,992.26
2018-02-02T02:42:41.806Z,992.23
2018-02-02T02:43:41.787Z,992.21
2018-02-02T02:44:42.668Z,992.22
2018-02-02T02:45:41.767Z,992.24
2018-02-02T02:46:41.775Z,992.13
2018-02-02T02:47:41.743Z,992.18
2018-02-02T02:48:41.724Z,992.12
2018-02-02T02:49:41.713Z,992.11
2018-02-02T02:50:41.700Z,992.24
2018-02-02T02:51:41.685Z,992.14
2018-02-02T02:52:41.672Z,992.17
2018-02-02T02:53:41.661Z,992.19
2018-02-02T02:54:41.646Z,992.17
2018-02-02T02:55:41.639Z,992.17
2018-02-02T02:56:41.622Z,992.15
2018-02-02T02:57:41.611Z,992.16
2018-02-02T02:58:41.610Z,992.14
2018-02-02T02:59:41.588Z,992.19
2018-02-02T03:00:41.581Z,992.11
2018-02-02T03:01:41.562Z,992.11
2018-02-02T03:02:41.550Z,992.05
2018-02-02T03:03:41.534Z,992.13
2018-02-02T03:04:41.520Z,992.09
2018-02-02T03:05:41.508Z,992.14
2018-02-02T03:06:41.496Z,992.08
2018-02-02T03:07:41.483Z,992.10
2018-02-02T03:08:41.473Z,992.11
2018-02-02T03:09:41.459Z,992.10
2018-02-02T03:10:41.456Z,991.97
2018-02-02T03:11:41.438Z,992.06
2018-02-02T03:12:41.417Z,992.14
2018-02-02T03:13:41.405Z,992.10
2018-02-02T03:14:41.396Z,992.06
2018-02-02T03:15:41.386Z,991.96
2018-02-02T03:16:41.367Z,992.03
2018-02-02T03:17:41.354Z,992.01
2018-02-02T03:18:41.338Z,992.02
2018-02-02T03:19:41.332Z,992.07
2018-02-02T03:20:41.312Z,991.99
2018-02-02T03:21:41.303Z,991.96
2018-02-02T03:22:41.297Z,992.04
2018-02-02T03:23:41.280Z,992.01
2018-02-02T03:24:41.270Z,992.00
2018-02-02T03:25:41.250Z,991.99
2018-02-02T03:26:41.240Z,991.94
2018-02-02T03:27:41.228Z,991.96
2018-02-02T03:28:41.210Z,991.91
2018-02-02T03:29:41.200Z,991.87
2018-02-02T03:30:41.187Z,991.89
2018-02-02T03:31:41.173Z,991.97
2018-02-02T03:32:41.159Z,991.99
2018-02-02T03:33:41.143Z,991.93
2018-02-02T03:34:41.134Z,992.01
2018-02-02T03:35:41.120Z,991.92
2018-02-02T03:36:41.111Z,992.02
2018-02-02T03:37:41.093Z,992.05
2018-02-02T03:38:41.077Z,991.98
2018-02-02T03:39:41.076Z,991.95
2018-02-02T03:40:41.062Z,991.96
2018-02-02T03:41:41.048Z,992.05
2018-02-02T03:42:41.032Z,991.98
2018-02-02T03:43:41.017Z,992.08
2018-02-02T03:44:41.003Z,992.00
2018-02-02T03:45:40.998Z,992.06
2018-02-02T03:46:40.979Z,992.07
2018-02-02T03:47:40.965Z,992.07
2018-02-02T03:48:40.951Z,992.06
2018-02-02T03:49:40.935Z,992.08
2018-02-02T03:50:40.928Z,992.05
2018-02-02T03:51:40.912Z,992.02
2018-02-02T03:52:40.898Z,992.09
2018-02-02T03:53:40.883Z,991.99
2018-02-02T03:54:40.872Z,992.04
2018-02-02T03:55:40.860Z,992.06
2018-02-02T03:56:40.845Z,992.01
2018-02-02T03:57:40.834Z,992.12
2018-02-02T03:58:40.821Z,992.01
2018-02-02T03:59:40.813Z,991.96
2018-02-02T04:00:40.830Z,992.09
2018-02-02T04:01:40.782Z,992.10
2018-02-02T04:02:40.778Z,992.05
2018-02-02T04:03:40.754Z,992.06
2018-02-02T04:04:40.743Z,992.07
2018-02-02T04:05:40.726Z,992.00
2018-02-02T04:06:40.729Z,992.02
2018-02-02T04:07:40.706Z,992.06
2018-02-02T04:08:40.692Z,992.09
2018-02-02T04:09:40.679Z,992.01
2018-02-02T04:10:40.665Z,992.09
2018-02-02T04:11:40.654Z,992.04
2018-02-02T04:12:40.635Z,991.85
2018-02-02T04:13:40.624Z,992.07
2018-02-02T04:14:40.610Z,992.10
2018-02-02T04:15:40.595Z,992.15
2018-02-02T04:16:40.611Z,992.12
2018-02-02T04:17:40.573Z,992.10
2018-02-02T04:18:40.561Z,992.10
2018-02-02T04:19:40.550Z,992.14
2018-02-02T04:20:40.535Z,992.11
2018-02-02T04:21:40.522Z,992.17
2018-02-02T04:22:40.512Z,992.09
2018-02-02T04:23:40.498Z,992.11
2018-02-02T04:24:40.479Z,992.06
2018-02-02T04:25:40.466Z,992.08
2018-02-02T04:28:13.710Z,992.01
2018-02-02T04:29:13.663Z,992.07
2018-02-02T04:30:13.655Z,992.11
2018-02-02T04:31:13.636Z,992.08
2018-02-02T04:32:13.627Z,992.06
2018-02-02T04:33:13.610Z,992.06
2018-02-02T04:34:13.594Z,992.14
2018-02-02T04:35:13.587Z,992.11
2018-02-02T04:36:13.582Z,992.25
2018-02-02T04:37:13.561Z,992.12
2018-02-02T04:38:13.546Z,992.12
2018-02-02T04:39:13.538Z,992.14
2018-02-02T04:40:13.521Z,992.05
2018-02-02T04:41:13.527Z,992.07
2018-02-02T04:42:13.496Z,992.08
2018-02-02T04:43:13.481Z,992.06
2018-02-02T04:44:13.483Z,992.07
2018-02-02T04:45:13.457Z,992.06
2018-02-02T04:46:13.446Z,992.06
2018-02-02T04:47:13.431Z,992.10
2018-02-02T04:48:13.421Z,992.10
2018-02-02T04:49:13.406Z,992.07
2018-02-02T04:50:13.392Z,992.04
2018-02-02T04:51:13.381Z,992.04
2018-02-02T04:52:13.368Z,992.02
2018-02-02T04:53:13.360Z,992.08
2018-02-02T04:54:13.342Z,992.05
2018-02-02T04:55:13.336Z,992.10
2018-02-02T04:56:13.312Z,992.07
2018-02-02T04:57:13.322Z,991.97
2018-02-02T04:58:13.286Z,992.05
2018-02-02T04:59:13.277Z,992.01
2018-02-02T05:00:13.269Z,992.00
2018-02-02T05:01:13.246Z,992.02
2018-02-02T05:02:13.242Z,991.99
2018-02-02T05:03:13.228Z,992.00
2018-02-02T05:04:13.213Z,992.00
2018-02-02T05:05:13.198Z,992.05
2018-02-02T05:06:13.191Z,992.04
2018-02-02T05:07:13.180Z,992.03
2018-02-02T05:08:13.162Z,992.01
2018-02-02T05:09:13.151Z,992.07
2018-02-02T05:10:13.135Z,992.03
2018-02-02T05:11:13.122Z,992.05
2018-02-02T05:12:13.110Z,992.09
2018-02-02T05:13:13.099Z,992.03
2018-02-02T05:14:13.092Z,992.05
2018-02-02T05:15:13.069Z,992.11
2018-02-02T05:16:13.054Z,992.06
2018-02-02T05:17:13.052Z,992.05
2018-02-02T05:18:13.038Z,992.07
2018-02-02T05:19:13.032Z,992.05
2018-02-02T05:20:13.008Z,992.08
2018-02-02T05:21:12.992Z,992.15
2018-02-02T05:22:12.991Z,992.08
2018-02-02T05:23:12.975Z,992.04
2018-02-02T05:24:12.952Z,992.08
2018-02-02T05:25:12.943Z,992.10
2018-02-02T05:26:12.929Z,992.09
2018-02-02T05:27:12.918Z,992.07
2018-02-02T05:28:12.905Z,992.01
2018-02-02T05:29:12.890Z,992.04
2018-02-02T05:30:12.877Z,992.06
2018-02-02T05:31:12.863Z,992.07
2018-02-02T05:32:12.853Z,992.04
2018-02-02T05:33:12.842Z,992.03
2018-02-02T05:34:12.826Z,992.08
2018-02-02T05:35:12.812Z,992.05
2018-02-02T05:36:12.802Z,992.11
2018-02-02T05:37:12.783Z,992.07
2018-02-02T05:38:12.770Z,992.06
2018-02-02T05:39:12.764Z,992.10
2018-02-02T05:40:12.752Z,992.05
2018-02-02T05:41:12.737Z,992.07
2018-02-02T05:42:12.718Z,992.10
2018-02-02T05:43:12.707Z,992.11
2018-02-02T05:44:12.696Z,992.13
2018-02-02T05:45:12.684Z,992.12
2018-02-02T05:46:12.670Z,992.07
2018-02-02T05:47:12.657Z,992.08
2018-02-02T05:48:12.645Z,992.07
2018-02-02T05:49:12.632Z,992.08
2018-02-02T05:50:12.621Z,992.11
2018-02-02T05:51:12.610Z,992.09
2018-02-02T05:52:12.598Z,992.09
2018-02-02T05:53:12.583Z,992.06
2018-02-02T05:54:12.571Z,992.04
2018-02-02T05:55:12.555Z,992.05
2018-02-02T05:56:12.539Z,992.05
2018-02-02T05:57:12.541Z,992.05
2018-02-02T05:58:12.516Z,992.00
2018-02-02T05:59:12.507Z,992.03
2018-02-02T06:00:12.493Z,992.06
2018-02-02T06:01:12.474Z,992.06
2018-02-02T06:02:12.465Z,992.11
2018-02-02T06:03:12.451Z,992.09
2018-02-02T06:04:12.483Z,992.05
2018-02-02T06:05:12.426Z,992.03
2018-02-02T06:06:12.501Z,992.04
2018-02-02T06:07:12.398Z,991.97
2018-02-02T06:08:12.383Z,991.99
2018-02-02T06:09:12.376Z,991.94
2018-02-02T06:10:12.356Z,991.92
2018-02-02T06:11:12.350Z,991.91
2018-02-02T06:12:12.332Z,991.93
2018-02-02T06:13:12.324Z,991.93
2018-02-02T06:14:12.301Z,991.90
2018-02-02T06:15:12.302Z,991.91
2018-02-02T06:16:12.281Z,991.88
2018-02-02T06:17:12.267Z,991.85
2018-02-02T06:18:12.251Z,991.87
2018-02-02T06:19:12.236Z,991.83
2018-02-02T06:20:12.227Z,991.86
2018-02-02T06:21:12.210Z,991.91
2018-02-02T06:22:12.202Z,991.85
2018-02-02T06:23:12.187Z,991.82
2018-02-02T06:24:12.181Z,991.85
2018-02-02T06:25:12.171Z,991.83
2018-02-02T06:26:12.144Z,991.83
2018-02-02T06:27:12.137Z,991.81
2018-02-02T06:28:12.119Z,991.83
2018-02-02T06:29:12.110Z,991.87
2018-02-02T06:30:12.095Z,991.86
2018-02-02T06:31:12.082Z,991.85
2018-02-02T06:32:12.073Z,991.86
2018-02-02T06:33:12.051Z,991.87
2018-02-02T06:34:12.043Z,991.85
2018-02-02T06:35:12.031Z,991.89
2018-02-02T06:36:12.020Z,991.86
2018-02-02T06:37:11.997Z,991.87
2018-02-02T06:38:11.984Z,991.88
2018-02-02T06:39:11.971Z,991.92
2018-02-02T06:40:11.962Z,991.89
2018-02-02T06:41:11.941Z,991.89
2018-02-02T06:42:11.929Z,991.88
2018-02-02T06:43:11.919Z,991.87
2018-02-02T06:44:11.905Z,991.82
2018-02-02T06:45:11.895Z,991.84
2018-02-02T06:46:11.876Z,991.88
2018-02-02T06:47:11.866Z,991.89
2018-02-02T06:48:11.883Z,991.89
2018-02-02T06:49:11.849Z,991.88
2018-02-02T06:50:11.831Z,991.91
2018-02-02T06:51:11.808Z,991.94
2018-02-02T06:52:11.798Z,991.93
2018-02-02T06:53:11.785Z,991.97
2018-02-02T06:54:11.767Z,991.99
2018-02-02T06:55:11.756Z,992.00
2018-02-02T06:56:11.739Z,992.01
2018-02-02T06:57:11.736Z,991.97
2018-02-02T06:58:11.716Z,991.99
2018-02-02T06:59:11.700Z,991.98
2018-02-02T07:00:11.699Z,991.98
2018-02-02T07:01:11.673Z,992.01
2018-02-02T07:02:11.667Z,991.97
2018-02-02T07:03:11.647Z,992.01
2018-02-02T07:04:11.634Z,992.03
2018-02-02T07:05:11.642Z,992.09
2018-02-02T07:06:11.613Z,992.06
2018-02-02T07:07:11.593Z,992.04
2018-02-02T07:08:11.609Z,992.04
2018-02-02T07:09:11.582Z,992.05
2018-02-02T07:10:11.559Z,992.05
2018-02-02T07:11:11.580Z,992.08
2018-02-02T07:12:11.527Z,992.04
2018-02-02T07:13:11.642Z,992.12
2018-02-02T07:14:11.504Z,992.12
2018-02-02T07:15:11.494Z,992.10
2018-02-02T07:16:11.481Z,992.08
2018-02-02T07:17:11.468Z,992.14
2018-02-02T07:18:11.461Z,992.11
2018-02-02T07:19:12.122Z,992.16
2018-02-02T07:20:11.430Z,992.12
2018-02-02T07:21:11.411Z,992.20
2018-02-02T07:22:11.395Z,992.13
2018-02-02T07:23:11.402Z,992.14
2018-02-02T07:24:11.372Z,992.14
2018-02-02T07:25:11.363Z,992.15
2018-02-02T07:26:11.355Z,992.19
2018-02-02T07:27:11.354Z,992.19
2018-02-02T07:28:11.329Z,992.20
2018-02-02T07:29:11.313Z,992.16
2018-02-02T07:30:11.294Z,992.23
2018-02-02T07:31:11.293Z,992.24
2018-02-02T07:32:11.266Z,992.23
2018-02-02T07:33:11.255Z,992.27
2018-02-02T07:34:11.283Z,992.29
2018-02-02T07:35:11.225Z,992.33
2018-02-02T07:36:11.225Z,992.34
2018-02-02T07:37:11.201Z,992.26
2018-02-02T07:38:11.192Z,992.38
2018-02-02T07:39:11.193Z,992.29
2018-02-02T07:40:13.109Z,992.35
2018-02-02T07:41:11.173Z,992.30
2018-02-02T07:42:11.143Z,992.35
2018-02-02T07:43:11.127Z,992.33
2018-02-02T07:44:11.110Z,992.32
2018-02-02T07:45:11.099Z,992.36
2018-02-02T07:46:11.090Z,992.33
2018-02-02T07:47:11.089Z,992.36
2018-02-02T07:48:11.059Z,992.34
2018-02-02T07:49:11.065Z,992.37
2018-02-02T07:50:11.040Z,992.41
2018-02-02T07:51:11.026Z,992.45
2018-02-02T07:52:11.022Z,992.42
2018-02-02T07:53:11.022Z,992.45
2018-02-02T07:54:10.991Z,992.46
2018-02-02T07:55:10.982Z,992.47
2018-02-02T07:56:10.960Z,992.46
2018-02-02T07:57:10.946Z,992.41
2018-02-02T07:58:10.940Z,992.50
2018-02-02T07:59:10.922Z,992.50
2018-02-02T08:00:10.909Z,992.53
2018-02-02T08:01:10.896Z,992.56
2018-02-02T08:02:10.884Z,992.53
2018-02-02T08:03:10.872Z,992.59
2018-02-02T08:04:10.859Z,992.53
2018-02-02T08:05:10.841Z,992.57
2018-02-02T08:06:10.834Z,992.61
2018-02-02T08:07:10.830Z,992.61
2018-02-02T08:08:10.815Z,992.55
2018-02-02T08:09:10.791Z,992.61
2018-02-02T08:10:10.780Z,992.61
2018-02-02T08:11:10.768Z,992.61
2018-02-02T08:12:10.752Z,992.63
2018-02-02T08:13:10.741Z,992.62
2018-02-02T08:14:10.731Z,992.60
2018-02-02T08:15:10.719Z,992.65
2018-02-02T08:16:10.711Z,992.64
2018-02-02T08:17:10.687Z,992.65
2018-02-02T08:18:10.678Z,992.66
2018-02-02T08:19:10.663Z,992.69
2018-02-02T08:20:10.654Z,992.71
2018-02-02T08:21:10.640Z,992.73
2018-02-02T08:22:10.648Z,992.73
2018-02-02T08:23:10.614Z,992.73
2018-02-02T08:24:10.612Z,992.73
2018-02-02T08:25:10.585Z,992.78
2018-02-02T08:26:10.586Z,992.80
2018-02-02T08:27:10.563Z,992.72
2018-02-02T08:28:10.552Z,992.82
2018-02-02T08:29:10.546Z,992.83
2018-02-02T08:30:10.527Z,992.87
2018-02-02T08:31:10.519Z,992.83
2018-02-02T08:32:10.499Z,992.87
2018-02-02T08:33:10.484Z,992.95
2018-02-02T08:34:10.485Z,992.93
2018-02-02T08:35:10.470Z,992.89
2018-02-02T08:36:10.453Z,992.94
2018-02-02T08:37:10.438Z,992.98
2018-02-02T08:38:10.425Z,992.98
2018-02-02T08:39:10.419Z,992.99
2018-02-02T08:40:10.404Z,992.99
2018-02-02T08:41:10.385Z,992.95
2018-02-02T08:42:10.377Z,992.99
2018-02-02T08:43:10.401Z,992.97
2018-02-02T08:44:10.350Z,992.99
2018-02-02T08:45:10.338Z,992.99
2018-02-02T08:46:10.335Z,993.07
2018-02-02T08:47:10.328Z,993.02
2018-02-02T08:48:10.301Z,993.01
2018-02-02T08:49:10.291Z,993.01
2018-02-02T08:50:10.286Z,993.02
2018-02-02T08:51:10.266Z,993.04
2018-02-02T08:52:10.252Z,993.05
2018-02-02T08:53:10.236Z,993.07
2018-02-02T08:54:10.228Z,993.07
2018-02-02T08:55:10.212Z,993.04
2018-02-02T08:56:10.224Z,993.02
2018-02-02T08:57:10.200Z,993.06
2018-02-02T08:58:10.183Z,993.08
2018-02-02T08:59:10.162Z,993.03
2018-02-02T09:00:10.194Z,993.07
2018-02-02T09:01:10.158Z,993.10
2018-02-02T09:02:10.133Z,993.05
2018-02-02T09:03:10.117Z,993.17
2018-02-02T09:04:10.106Z,993.14
2018-02-02T09:05:10.086Z,993.02
2018-02-02T09:06:10.084Z,993.07
2018-02-02T09:07:10.067Z,993.07
2018-02-02T09:08:10.054Z,993.13
2018-02-02T09:09:10.038Z,993.14
2018-02-02T09:10:10.048Z,993.10
2018-02-02T09:11:10.017Z,993.13
2018-02-02T09:12:10.013Z,993.11
2018-02-02T09:13:09.994Z,993.18
2018-02-02T09:14:09.982Z,993.19
2018-02-02T09:15:09.972Z,993.20
2018-02-02T09:16:09.965Z,993.19
2018-02-02T09:17:09.965Z,993.24
2018-02-02T09:18:09.936Z,993.23
2018-02-02T09:19:09.919Z,993.26
2018-02-02T09:20:09.904Z,993.24
2018-02-02T09:21:09.892Z,993.22
2018-02-02T09:22:09.880Z,993.21
2018-02-02T09:23:09.871Z,993.24
2018-02-02T09:24:09.856Z,993.26
2018-02-02T09:25:09.843Z,993.23
2018-02-02T09:26:09.837Z,993.26
2018-02-02T09:27:09.824Z,993.25
2018-02-02T09:28:09.807Z,993.28
2018-02-02T09:29:09.799Z,993.30
2018-02-02T09:30:09.783Z,993.29
2018-02-02T09:31:09.820Z,993.34
2018-02-02T09:32:09.770Z,993.31
2018-02-02T09:33:09.756Z,993.29
2018-02-02T09:34:09.750Z,993.41
2018-02-02T09:35:09.725Z,993.36
2018-02-02T09:36:09.715Z,993.34
2018-02-02T09:37:09.697Z,993.41
2018-02-02T09:38:09.687Z,993.36
2018-02-02T09:39:09.680Z,993.40
2018-02-02T09:40:09.674Z,993.34
2018-02-02T09:41:09.654Z,993.37
2018-02-02T09:42:09.653Z,993.43
2018-02-02T09:43:09.635Z,993.36
2018-02-02T09:44:09.620Z,993.40
2018-02-02T09:45:09.615Z,993.39
2018-02-02T09:46:09.594Z,993.41
2018-02-02T09:47:09.585Z,993.42
2018-02-02T09:48:09.579Z,993.46
2018-02-02T09:49:09.553Z,993.44
2018-02-02T09:50:09.547Z,993.46
2018-02-02T09:51:09.530Z,993.45
2018-02-02T09:52:09.523Z,993.50
2018-02-02T09:53:09.529Z,993.48
2018-02-02T09:54:09.507Z,993.47
2018-02-02T09:55:09.486Z,993.53
2018-02-02T09:56:09.491Z,993.57
2018-02-02T09:57:09.464Z,993.56
2018-02-02T09:58:09.450Z,993.58
2018-02-02T09:59:09.453Z,993.58
2018-02-02T10:00:09.445Z,993.60
2018-02-02T10:01:09.423Z,993.63
2018-02-02T10:02:09.404Z,993.63
2018-02-02T10:03:09.395Z,993.65
2018-02-02T10:04:09.396Z,993.68
2018-02-02T10:05:09.387Z,993.65
2018-02-02T10:06:09.370Z,993.67
2018-02-02T10:07:09.361Z,993.65
2018-02-02T10:08:09.334Z,993.70
2018-02-02T10:09:09.326Z,993.70
2018-02-02T10:10:09.308Z,993.71
2018-02-02T10:11:09.297Z,993.72
2018-02-02T10:12:09.287Z,993.73
2018-02-02T10:13:09.295Z,993.67
2018-02-02T10:14:09.270Z,993.72
2018-02-02T10:15:09.250Z,993.78
2018-02-02T10:16:09.240Z,993.79
2018-02-02T10:17:09.228Z,993.73
2018-02-02T10:18:09.221Z,993.80
2018-02-02T10:19:09.206Z,993.80
2018-02-02T10:20:09.193Z,993.79
2018-02-02T10:21:09.183Z,993.78
2018-02-02T10:22:09.205Z,993.79
2018-02-02T10:23:09.163Z,993.84
2018-02-02T10:24:09.148Z,993.81
2018-02-02T10:25:09.130Z,993.90
2018-02-02T10:26:09.124Z,993.84
2018-02-02T10:27:09.114Z,993.77
2018-02-02T10:28:09.099Z,993.84
2018-02-02T10:29:09.090Z,993.81
2018-02-02T10:30:09.080Z,993.81
2018-02-02T10:31:09.067Z,993.82
2018-02-02T10:32:09.069Z,993.81
2018-02-02T10:33:09.046Z,993.85
2018-02-02T10:34:09.047Z,993.83
2018-02-02T10:35:09.041Z,993.82
2018-02-02T10:36:09.013Z,993.88
2018-02-02T10:37:09.085Z,993.90
2018-02-02T10:38:09.019Z,993.89
2018-02-02T10:39:08.971Z,993.91
2018-02-02T10:40:08.962Z,993.92
2018-02-02T10:41:08.976Z,993.92
2018-02-02T10:42:08.943Z,993.96
2018-02-02T10:43:08.929Z,993.91
2018-02-02T10:44:08.921Z,993.98
2018-02-02T10:45:08.916Z,993.96
2018-02-02T10:46:08.893Z,993.97
2018-02-02T10:47:08.911Z,994.03
2018-02-02T10:48:08.878Z,993.98
2018-02-02T10:49:08.884Z,994.03
2018-02-02T10:50:08.853Z,994.08
2018-02-02T10:51:08.841Z,994.01
2018-02-02T10:52:08.834Z,994.04
2018-02-02T10:53:08.864Z,994.06
2018-02-02T10:54:08.812Z,994.02
2018-02-02T10:55:08.794Z,994.06
2018-02-02T10:56:08.780Z,994.05
2018-02-02T10:57:08.782Z,994.09
2018-02-02T10:58:08.778Z,994.10
2018-02-02T10:59:08.753Z,994.07
2018-02-02T11:00:08.746Z,994.09
2018-02-02T11:01:08.727Z,994.07
2018-02-02T11:02:08.714Z,994.11
2018-02-02T11:03:08.715Z,994.08
2018-02-02T11:04:08.700Z,994.08
2018-02-02T11:05:08.685Z,994.09
2018-02-02T11:06:08.693Z,994.10
2018-02-02T11:07:08.666Z,994.07
2018-02-02T11:08:08.648Z,994.12
2018-02-02T11:09:08.651Z,994.11
2018-02-02T11:10:08.641Z,994.13
2018-02-02T11:11:08.621Z,994.09
2018-02-02T11:12:08.607Z,994.11
2018-02-02T11:13:08.591Z,994.11
2018-02-02T11:14:08.588Z,994.13
2018-02-02T11:15:08.593Z,994.11
2018-02-02T11:16:08.563Z,994.11
2018-02-02T11:17:08.558Z,994.12
2018-02-02T11:18:08.547Z,994.12
2018-02-02T11:19:08.527Z,994.15
2018-02-02T11:20:08.531Z,994.17
2018-02-02T11:21:08.544Z,994.15
2018-02-02T11:22:08.499Z,994.14
2018-02-02T11:23:08.510Z,994.15
2018-02-02T11:24:08.475Z,994.13
2018-02-02T11:25:08.465Z,994.14
2018-02-02T11:26:08.480Z,994.17
2018-02-02T11:27:08.445Z,994.16
2018-02-02T11:28:08.442Z,994.16
2018-02-02T11:29:08.420Z,994.16
2018-02-02T11:30:08.407Z,994.14
2018-02-02T11:31:08.397Z,994.12
2018-02-02T11:32:08.402Z,994.11
2018-02-02T11:33:08.408Z,994.17
2018-02-02T11:34:08.391Z,994.15
2018-02-02T11:35:08.373Z,994.13
2018-02-02T11:36:08.344Z,994.13
2018-02-02T11:37:08.334Z,994.15
2018-02-02T11:38:08.328Z,994.18
2018-02-02T11:39:08.316Z,994.15
2018-02-02T11:40:08.307Z,994.17
2018-02-02T11:41:08.292Z,994.18
2018-02-02T11:42:08.285Z,994.18
2018-02-02T11:43:08.277Z,994.19
2018-02-02T11:44:08.257Z,994.21
2018-02-02T11:45:08.255Z,994.24
2018-02-02T11:46:08.242Z,994.26
2018-02-02T11:47:08.231Z,994.26
2018-02-02T11:48:08.223Z,994.25
2018-02-02T11:49:08.226Z,994.31
2018-02-02T11:50:08.214Z,994.31
2018-02-02T11:51:08.183Z,994.26
2018-02-02T11:52:08.180Z,994.30
2018-02-02T11:53:08.183Z,994.27
2018-02-02T11:54:08.171Z,994.25
2018-02-02T11:55:08.142Z,994.31
2018-02-02T11:56:08.140Z,994.30
2018-02-02T11:57:08.135Z,994.31
2018-02-02T11:58:08.112Z,994.32
2018-02-02T11:59:08.098Z,994.29
2018-02-02T12:00:08.107Z,994.35
2018-02-02T12:01:08.099Z,994.33
2018-02-02T12:02:08.083Z,994.35
2018-02-02T12:03:08.057Z,994.33
2018-02-02T12:04:08.050Z,994.34
2018-02-02T12:05:08.035Z,994.33
2018-02-02T12:06:08.029Z,994.37
2018-02-02T12:07:08.010Z,994.38
2018-02-02T12:08:08.013Z,994.38
2018-02-02T12:09:08.060Z,994.40
2018-02-02T12:10:07.988Z,994.43
2018-02-02T12:11:07.983Z,994.42
2018-02-02T12:12:07.967Z,994.48
2018-02-02T12:13:07.947Z,994.47
2018-02-02T12:14:07.944Z,994.48
2018-02-02T12:15:07.958Z,994.47
2018-02-02T12:16:07.923Z,994.49
2018-02-02T12:17:07.902Z,994.48
2018-02-02T12:18:07.898Z,994.48
2018-02-02T12:19:07.923Z,994.49
2018-02-02T12:20:07.892Z,994.49
2018-02-02T12:21:07.866Z,994.49
2018-02-02T12:22:07.860Z,994.50
2018-02-02T12:23:07.865Z,994.52
2018-02-02T12:24:07.825Z,994.56
2018-02-02T12:25:07.843Z,994.58
2018-02-02T12:26:07.818Z,994.57
2018-02-02T12:27:07.800Z,994.53
2018-02-02T12:28:07.893Z,994.48
2018-02-02T12:29:07.789Z,994.49
2018-02-02T12:30:07.783Z,994.50